Shell Lake, Canada
Current Conditions -  °F | °C
As of 2:00 AM on Thursday 29 Jan 2015 (Local Time) from CYPA Reporting Station
Light Snow Light Snow  
Wind Chill: -21°   Ceiling: 1700
Heat Index: -15°   Visibility: 15mi
Dew Point: -17°   Wind: 6mph
Humidity: 85%   Direction: 360°N
Pressure: 30.47"   Gusts: NA
Location:  53.3°N, 107.05°W
Report Text: CYPA 290800Z 36005KT 15SM -SN OVC017 M15/M17 A3047 RMK SC8 SLP356
Loading
Personal Weather Stations






























Interactive Weather Map New forecast layout! Learn more

10-Day Weather Forecast

Advertisements
Track Severe Weather on mobile